Time;durP1;ratioP1;P1;durP2;ratioP2;P2;SDS_P1;SDS_P2;PMS_P1;PMS_P2;Temp;Humidity;BMP_temperature;BMP_pressure;BME280_temperature;BME280_humidity;BME280_pressure;Samples;Min_cycle;Max_cycle;Signal;HPM_P1;HPM_P2
2022/01/29 00:00:08;;;;;;;15.23;4.78;;;6.70;61.00;;;;;;5073022;28;20138;-68
2022/01/29 00:02:34;;;;;;;14.57;4.70;;;6.70;60.90;;;;;;5072997;28;20107;-69
2022/01/29 00:05:00;;;;;;;10.55;3.38;;;6.70;60.80;;;;;;5074239;28;20031;-69
2022/01/29 00:07:25;;;;;;;11.13;3.95;;;6.70;60.90;;;;;;5072890;28;20491;-69
2022/01/29 00:09:51;;;;;;;14.50;3.85;;;6.70;60.90;;;;;;5074362;28;20043;-69
2022/01/29 00:12:17;;;;;;;11.90;4.05;;;6.70;61.00;;;;;;5072752;28;20143;-69
2022/01/29 00:14:44;;;;;;;15.68;3.80;;;6.70;61.00;;;;;;5072742;28;20028;-68
2022/01/29 00:17:12;;;;;;;11.95;2.97;;;6.70;61.20;;;;;;5072600;28;20035;-70
2022/01/29 00:19:40;;;;;;;9.90;4.03;;;6.80;61.30;;;;;;5073657;28;20484;-69
2022/01/29 00:22:07;;;;;;;8.52;3.83;;;6.80;61.30;;;;;;5073925;28;20027;-70
2022/01/29 00:24:33;;;;;;;9.52;4.32;;;6.80;61.30;;;;;;5072554;28;20032;-69
2022/01/29 00:27:02;;;;;;;10.73;4.47;;;6.80;61.50;;;;;;5073562;28;20024;-69
2022/01/29 00:29:28;;;;;;;12.48;4.85;;;6.80;61.60;;;;;;5073519;28;20028;-68
2022/01/29 00:31:53;;;;;;;14.68;5.18;;;6.80;61.60;;;;;;5073820;28;20033;-70
2022/01/29 00:34:19;;;;;;;17.92;5.60;;;6.80;61.50;;;;;;5075775;28;20032;-69
2022/01/29 00:36:45;;;;;;;19.90;4.78;;;6.80;61.30;;;;;;5075704;28;20447;-68
2022/01/29 00:39:11;;;;;;;16.42;5.10;;;6.80;61.40;;;;;;5093786;28;20024;-69
2022/01/29 00:41:36;;;;;;;10.70;4.60;;;6.80;61.40;;;;;;5093877;28;20035;-68
2022/01/29 00:44:02;;;;;;;15.10;4.78;;;6.80;61.30;;;;;;5075164;28;20024;-68
2022/01/29 00:46:28;;;;;;;8.85;3.90;;;6.80;61.50;;;;;;5075554;28;20458;-68
2022/01/29 00:48:54;;;;;;;7.90;4.18;;;6.80;61.60;;;;;;5093735;28;20451;-69
2022/01/29 00:51:21;;;;;;;11.65;4.88;;;6.80;61.60;;;;;;5093957;28;20525;-68
2022/01/29 00:53:47;;;;;;;12.57;4.30;;;6.80;61.60;;;;;;5075569;28;20020;-69
2022/01/29 00:56:12;;;;;;;11.45;4.25;;;6.80;61.80;;;;;;5075508;28;20613;-68
2022/01/29 00:58:38;;;;;;;12.88;4.47;;;6.80;61.80;;;;;;5075331;28;20127;-68
2022/01/29 01:01:04;;;;;;;12.30;5.22;;;6.80;61.70;;;;;;5075503;28;20394;-68
2022/01/29 01:03:30;;;;;;;12.75;5.07;;;6.80;61.70;;;;;;5093828;28;20020;-68
2022/01/29 01:05:55;;;;;;;12.57;4.63;;;6.80;61.70;;;;;;5093489;28;20032;-69
2022/01/29 01:08:21;;;;;;;11.43;4.78;;;6.90;61.80;;;;;;5075476;28;20032;-68
2022/01/29 01:10:47;;;;;;;10.70;4.70;;;6.90;61.80;;;;;;5093477;28;20024;-68
2022/01/29 01:13:13;;;;;;;9.07;4.10;;;6.90;61.90;;;;;;5093184;28;20051;-68
2022/01/29 01:15:40;;;;;;;13.13;4.32;;;6.90;62.00;;;;;;5075238;28;20024;-68
2022/01/29 01:18:05;;;;;;;11.48;4.85;;;6.90;62.00;;;;;;5075200;28;20028;-69
2022/01/29 01:20:31;;;;;;;17.33;5.40;;;7.00;62.10;;;;;;5093086;28;20039;-68
2022/01/29 01:22:57;;;;;;;10.48;4.63;;;7.00;62.00;;;;;;5075202;28;20127;-68
2022/01/29 01:25:23;;;;;;;8.15;4.60;;;7.00;61.70;;;;;;5093267;28;20024;-69
2022/01/29 01:27:49;;;;;;;12.10;5.50;;;7.00;61.80;;;;;;5093357;28;20409;-68
2022/01/29 01:30:14;;;;;;;11.02;5.20;;;7.00;61.70;;;;;;5075143;28;20463;-68
2022/01/29 01:32:40;;;;;;;11.30;5.32;;;7.00;61.70;;;;;;5071119;28;20044;-68
2022/01/29 01:35:17;;;;;;;12.30;4.60;;;7.00;61.90;;;;;;5071690;28;20055;-68
2022/01/29 01:37:52;;;;;;;11.27;4.63;;;7.00;61.50;;;;;;5073292;28;20056;-68
2022/01/29 01:40:19;;;;;;;14.82;5.43;;;7.00;61.50;;;;;;5073029;28;20074;-68
2022/01/29 01:42:45;;;;;;;10.40;4.43;;;7.00;61.50;;;;;;5073216;28;20032;-68
2022/01/29 01:45:11;;;;;;;17.48;4.53;;;7.00;61.60;;;;;;5071649;28;20029;-68
2022/01/29 01:47:37;;;;;;;13.52;5.60;;;7.00;61.70;;;;;;5071631;28;20032;-68
2022/01/29 01:50:06;;;;;;;12.63;5.10;;;7.00;61.80;;;;;;5071605;28;20029;-68
2022/01/29 01:52:31;;;;;;;13.65;5.38;;;6.90;61.90;;;;;;5071582;28;20029;-68
2022/01/29 01:54:57;;;;;;;12.73;6.03;;;6.90;61.90;;;;;;5071565;28;20128;-68
2022/01/29 01:57:23;;;;;;;11.82;5.95;;;6.90;61.70;;;;;;5074477;28;20037;-68
2022/01/29 01:59:49;;;;;;;18.55;6.60;;;6.90;61.60;;;;;;5075330;28;20032;-68
2022/01/29 02:02:15;;;;;;;11.82;5.65;;;6.90;61.80;;;;;;5076512;28;20024;-68
2022/01/29 02:04:41;;;;;;;13.60;6.55;;;6.80;61.90;;;;;;5076007;28;20486;-68
2022/01/29 02:07:07;;;;;;;15.00;6.60;;;6.80;61.90;;;;;;5075063;28;20024;-68
2022/01/29 02:09:33;;;;;;;17.83;6.82;;;6.80;62.10;;;;;;5074987;28;20467;-68
2022/01/29 02:12:02;;;;;;;12.65;6.38;;;6.80;62.30;;;;;;5074995;28;20035;-68
2022/01/29 02:14:30;;;;;;;12.02;6.28;;;6.80;62.30;;;;;;5076276;28;20356;-68
2022/01/29 02:16:57;;;;;;;19.08;7.43;;;6.80;62.40;;;;;;5074993;28;20020;-67
2022/01/29 02:19:22;;;;;;;10.32;6.30;;;6.80;62.20;;;;;;5074317;28;20036;-69
2022/01/29 02:21:48;;;;;;;19.27;7.05;;;6.80;62.00;;;;;;5075790;28;20032;-68
2022/01/29 02:24:14;;;;;;;13.00;6.20;;;6.80;62.10;;;;;;5074786;28;20033;-67
2022/01/29 02:26:40;;;;;;;18.05;8.02;;;6.80;62.10;;;;;;5075765;28;20025;-67
2022/01/29 02:29:06;;;;;;;16.95;7.00;;;6.80;62.30;;;;;;5075661;28;20036;-69
2022/01/29 02:31:32;;;;;;;16.48;7.13;;;6.80;62.40;;;;;;5075922;28;20028;-67
2022/01/29 02:33:58;;;;;;;13.75;7.55;;;6.80;62.50;;;;;;5074562;28;20056;-67
2022/01/29 02:36:24;;;;;;;16.83;6.82;;;6.80;62.20;;;;;;5075826;28;20025;-68
2022/01/29 02:38:50;;;;;;;16.50;7.25;;;6.90;62.00;;;;;;5074542;28;20035;-67
2022/01/29 02:41:16;;;;;;;16.58;7.75;;;6.90;61.90;;;;;;5074608;28;20055;-67
2022/01/29 02:43:47;;;;;;;15.73;7.28;;;6.90;61.90;;;;;;5075507;28;20031;-67
2022/01/29 02:48:50;;;;;;;16.58;7.47;;;7.00;61.70;;;;;;5075783;28;20063;-67
2022/01/29 02:51:16;;;;;;;14.38;7.55;;;7.00;61.60;;;;;;5074456;28;20112;-67
2022/01/29 02:53:42;;;;;;;17.90;7.53;;;7.00;61.40;;;;;;5074213;28;20032;-66
2022/01/29 02:56:09;;;;;;;18.80;8.07;;;7.00;61.20;;;;;;5075353;28;20357;-67
2022/01/29 02:58:35;;;;;;;13.68;7.63;;;6.90;61.00;;;;;;5074121;28;20460;-66
2022/01/29 03:01:01;;;;;;;15.55;8.15;;;6.90;60.80;;;;;;5074050;28;20069;-67
2022/01/29 03:03:27;;;;;;;14.13;7.20;;;6.80;60.90;;;;;;5075395;28;20024;-67
2022/01/29 03:05:53;;;;;;;15.50;6.95;;;6.80;60.90;;;;;;5074102;28;20032;-67
2022/01/29 03:08:19;;;;;;;19.35;8.88;;;6.70;60.90;;;;;;5075224;28;20035;-67
2022/01/29 03:10:47;;;;;;;17.08;8.10;;;6.60;60.90;;;;;;5075310;28;20064;-66
2022/01/29 03:13:13;;;;;;;15.27;7.63;;;6.50;61.00;;;;;;5073999;28;20392;-67
2022/01/29 03:15:39;;;;;;;11.63;6.78;;;6.50;61.40;;;;;;5073956;28;20021;-67
2022/01/29 03:18:05;;;;;;;20.55;9.30;;;6.40;61.50;;;;;;5073605;28;20427;-67
2022/01/29 03:20:30;;;;;;;14.50;7.82;;;6.40;61.50;;;;;;5075148;28;20384;-69
2022/01/29 03:22:57;;;;;;;16.52;8.60;;;6.30;62.30;;;;;;5075058;28;20104;-66
2022/01/29 03:25:24;;;;;;;22.30;9.45;;;6.30;61.50;;;;;;5074650;28;20025;-67
2022/01/29 03:27:50;;;;;;;15.65;8.20;;;6.20;61.60;;;;;;5073687;28;20464;-67
2022/01/29 03:30:16;;;;;;;16.58;8.00;;;6.20;62.00;;;;;;5073608;28;20021;-66
2022/01/29 03:32:42;;;;;;;23.10;8.40;;;6.20;62.00;;;;;;5083113;28;20040;-66
2022/01/29 03:35:09;;;;;;;15.32;7.95;;;6.20;62.00;;;;;;5094993;28;20024;-66
2022/01/29 03:37:35;;;;;;;17.75;8.00;;;6.10;61.90;;;;;;5094919;28;20028;-66
2022/01/29 03:40:04;;;;;;;15.60;8.25;;;6.10;62.10;;;;;;5094942;28;20042;-67
2022/01/29 03:42:35;;;;;;;16.67;9.13;;;6.10;62.20;;;;;;5076718;28;20035;-67
2022/01/29 03:45:00;;;;;;;13.18;7.75;;;6.10;62.30;;;;;;5094895;28;20020;-67
2022/01/29 03:47:26;;;;;;;25.73;9.57;;;6.10;62.30;;;;;;5076605;28;20024;-67
2022/01/29 03:49:52;;;;;;;16.33;8.05;;;6.10;62.40;;;;;;5094748;28;20030;-66
2022/01/29 03:52:18;;;;;;;15.82;7.63;;;6.10;62.50;;;;;;5076603;28;20031;-67
2022/01/29 03:54:43;;;;;;;14.48;7.95;;;6.10;62.50;;;;;;5076344;28;20054;-67
2022/01/29 03:57:09;;;;;;;18.00;8.30;;;6.10;62.60;;;;;;5094246;28;20106;-67
2022/01/29 03:59:35;;;;;;;15.38;9.07;;;6.20;62.70;;;;;;5076327;28;20039;-67
2022/01/29 04:02:01;;;;;;;20.50;9.55;;;6.10;62.50;;;;;;5094092;28;20024;-67
2022/01/29 04:04:27;;;;;;;23.10;9.27;;;6.20;62.50;;;;;;5076292;28;20111;-67
2022/01/29 04:06:53;;;;;;;18.05;8.25;;;6.30;62.50;;;;;;5094475;28;20111;-66
2022/01/29 04:09:20;;;;;;;19.20;9.85;;;6.30;62.40;;;;;;5094437;28;20111;-68
2022/01/29 04:11:46;;;;;;;20.50;8.50;;;6.30;62.20;;;;;;5094348;28;20020;-66
2022/01/29 04:14:17;;;;;;;20.30;9.23;;;6.40;62.20;;;;;;5075969;28;20024;-67
2022/01/29 04:16:44;;;;;;;14.45;8.35;;;6.40;62.10;;;;;;5094308;28;20024;-66
2022/01/29 04:19:11;;;;;;;20.00;9.10;;;6.40;61.90;;;;;;5093342;28;20375;-67
2022/01/29 04:21:37;;;;;;;15.65;8.48;;;6.40;61.80;;;;;;5094180;28;20444;-67
2022/01/29 04:24:04;;;;;;;18.63;9.00;;;6.50;61.80;;;;;;5075927;28;20020;-66
2022/01/29 04:26:34;;;;;;;25.90;8.93;;;6.50;61.50;;;;;;5075907;28;20021;-66
2022/01/29 04:29:02;;;;;;;21.00;8.60;;;6.50;61.40;;;;;;5075896;28;20427;-69
2022/01/29 04:31:36;;;;;;;14.02;7.70;;;6.50;61.40;;;;;;5094030;28;20032;-66
2022/01/29 04:34:03;;;;;;;17.02;8.65;;;6.50;61.30;;;;;;5093598;28;20048;-67
2022/01/29 04:36:29;;;;;;;13.15;7.45;;;6.50;61.30;;;;;;5075798;28;20123;-66
2022/01/29 04:38:55;;;;;;;16.02;8.68;;;6.40;61.30;;;;;;5093799;28;20103;-67
2022/01/29 04:41:22;;;;;;;14.65;7.35;;;6.40;61.10;;;;;;5093794;28;20069;-67
2022/01/29 04:43:48;;;;;;;15.63;7.82;;;6.50;61.10;;;;;;5075636;28;20077;-68
2022/01/29 04:46:14;;;;;;;13.07;7.55;;;6.40;61.10;;;;;;5094026;28;20035;-66
2022/01/29 04:48:40;;;;;;;14.25;7.53;;;6.40;61.10;;;;;;5093429;28;20027;-67
2022/01/29 04:51:06;;;;;;;16.15;8.18;;;6.40;61.20;;;;;;5075572;28;20028;-67
2022/01/29 04:53:32;;;;;;;13.77;7.53;;;6.40;61.20;;;;;;5093409;28;20440;-67
2022/01/29 04:55:58;;;;;;;13.77;7.72;;;6.40;61.20;;;;;;5093636;28;20024;-67
2022/01/29 04:58:24;;;;;;;14.38;7.55;;;6.40;61.20;;;;;;5093502;28;20099;-68
2022/01/29 05:00:50;;;;;;;17.05;7.88;;;6.30;61.20;;;;;;5093509;28;20181;-67
2022/01/29 05:03:16;;;;;;;12.88;7.07;;;6.30;61.30;;;;;;5093571;28;20099;-67
2022/01/29 05:05:43;;;;;;;19.17;7.40;;;6.30;61.30;;;;;;5075406;28;20043;-67
2022/01/29 05:08:11;;;;;;;16.15;7.60;;;6.30;61.30;;;;;;5093194;28;20031;-67
2022/01/29 05:10:38;;;;;;;12.93;6.93;;;6.30;61.20;;;;;;5075347;28;20496;-66
2022/01/29 05:13:07;;;;;;;17.73;8.23;;;6.30;61.30;;;;;;5093150;28;20099;-66
2022/01/29 05:15:56;;;;;;;17.23;8.57;;;6.30;61.30;;;;;;5093450;28;20016;-67
2022/01/29 05:26:52;;;;;;;16.40;8.23;;;6.30;61.50;;;;;;5093384;28;20563;-67
2022/01/29 05:29:19;;;;;;;14.65;7.22;;;6.30;61.40;;;;;;5093018;28;20467;-67
2022/01/29 05:31:44;;;;;;;12.75;7.60;;;6.30;61.30;;;;;;5078714;28;20032;-66
2022/01/29 05:34:10;;;;;;;13.23;7.43;;;6.30;61.10;;;;;;5097400;28;20039;-66
2022/01/29 05:36:36;;;;;;;12.10;7.60;;;6.40;61.30;;;;;;5097338;28;20028;-67
2022/01/29 05:39:04;;;;;;;15.20;7.88;;;6.40;61.30;;;;;;5079025;28;20050;-67
2022/01/29 05:41:30;;;;;;;13.20;7.70;;;6.40;61.20;;;;;;5079072;28;20028;-66
2022/01/29 05:43:56;;;;;;;13.63;7.13;;;6.50;61.30;;;;;;5079101;28;20024;-67
2022/01/29 05:46:22;;;;;;;12.65;7.20;;;6.50;61.30;;;;;;5078991;28;20035;-67
2022/01/29 05:48:48;;;;;;;13.27;7.45;;;6.50;61.30;;;;;;5097084;28;20028;-67
2022/01/29 05:51:14;;;;;;;13.75;7.38;;;6.60;61.20;;;;;;5097079;28;20078;-67
2022/01/29 05:53:40;;;;;;;12.35;6.70;;;6.60;61.20;;;;;;5097229;28;20082;-67
2022/01/29 05:56:06;;;;;;;16.20;7.45;;;6.60;61.00;;;;;;5096710;28;20486;-68
2022/01/29 05:58:32;;;;;;;12.05;7.65;;;6.60;60.80;;;;;;5078725;28;20032;-67
2022/01/29 06:00:58;;;;;;;14.27;6.80;;;6.70;60.70;;;;;;5096549;28;20102;-67
2022/01/29 06:03:24;;;;;;;17.27;7.78;;;6.70;60.70;;;;;;5096833;28;20029;-66
2022/01/29 06:05:50;;;;;;;14.85;7.38;;;6.70;60.60;;;;;;5096704;28;20028;-67
2022/01/29 06:08:16;;;;;;;14.95;7.50;;;6.80;60.60;;;;;;5078269;28;20063;-66
2022/01/29 06:10:42;;;;;;;13.88;7.20;;;6.80;60.30;;;;;;5096704;28;20024;-67
2022/01/29 06:13:10;;;;;;;14.18;7.68;;;6.80;60.30;;;;;;5078486;28;20024;-67
2022/01/29 06:15:47;;;;;;;12.52;8.05;;;6.80;60.20;;;;;;5078103;28;20020;-67
2022/01/29 06:18:17;;;;;;;14.73;7.10;;;6.80;60.30;;;;;;5096569;28;20035;-68
2022/01/29 06:20:48;;;;;;;16.70;7.78;;;6.80;60.10;;;;;;5096561;28;20036;-67
2022/01/29 06:23:15;;;;;;;12.10;6.78;;;6.90;59.80;;;;;;5077934;28;20032;-67
2022/01/29 06:25:42;;;;;;;11.52;7.88;;;6.90;59.80;;;;;;5078131;28;20123;-66
2022/01/29 06:28:08;;;;;;;10.38;6.80;;;6.90;59.80;;;;;;5096580;28;20043;-66
2022/01/29 06:30:34;;;;;;;11.63;7.07;;;7.00;59.80;;;;;;5077737;28;20034;-67
2022/01/29 06:33:11;;;;;;;12.43;6.75;;;6.90;59.60;;;;;;5074213;28;20053;-67
2022/01/29 06:35:38;;;;;;;16.50;7.47;;;7.00;59.50;;;;;;5074675;28;20089;-67
2022/01/29 06:38:06;;;;;;;13.63;6.68;;;7.00;59.50;;;;;;5075802;28;20036;-67
2022/01/29 06:40:32;;;;;;;13.65;6.60;;;7.00;59.50;;;;;;5075893;28;20115;-67
2022/01/29 06:42:58;;;;;;;13.77;6.95;;;7.10;59.50;;;;;;5073736;28;20078;-67
2022/01/29 06:45:24;;;;;;;15.75;7.10;;;7.10;59.40;;;;;;5074436;28;20426;-67
2022/01/29 06:47:50;;;;;;;13.27;7.25;;;7.10;59.40;;;;;;5074475;28;20056;-67
2022/01/29 06:50:16;;;;;;;9.93;6.50;;;7.10;59.20;;;;;;5075389;28;20031;-67
2022/01/29 06:52:42;;;;;;;12.88;6.75;;;7.10;59.30;;;;;;5075434;28;20029;-67
2022/01/29 06:55:08;;;;;;;10.57;6.78;;;7.10;59.10;;;;;;5074514;28;20052;-66
2022/01/29 06:57:33;;;;;;;12.23;6.97;;;7.10;59.00;;;;;;5074134;28;20039;-66
2022/01/29 06:59:59;;;;;;;15.90;6.93;;;7.20;58.90;;;;;;5077445;28;20024;-66
2022/01/29 07:02:25;;;;;;;10.65;6.50;;;7.20;58.80;;;;;;5095320;28;20145;-67
2022/01/29 07:04:51;;;;;;;12.98;6.38;;;7.20;58.80;;;;;;5095314;28;20098;-68
2022/01/29 07:07:16;;;;;;;17.75;7.05;;;7.20;58.90;;;;;;5095273;28;20024;-67
2022/01/29 07:09:42;;;;;;;12.45;6.55;;;7.30;58.90;;;;;;5095540;28;20024;-67
2022/01/29 07:12:10;;;;;;;18.88;7.38;;;7.20;58.80;;;;;;5095454;28;20024;-66
2022/01/29 07:14:39;;;;;;;10.07;6.07;;;7.30;58.80;;;;;;5095649;28;20020;-67
2022/01/29 07:17:11;;;;;;;14.52;7.05;;;7.30;58.80;;;;;;5095651;28;20455;-67
2022/01/29 07:19:38;;;;;;;11.32;6.30;;;7.30;58.80;;;;;;5095412;28;20123;-67
2022/01/29 07:22:04;;;;;;;11.48;6.20;;;7.40;58.80;;;;;;5094999;28;20078;-67
2022/01/29 07:24:31;;;;;;;15.65;6.40;;;7.40;58.70;;;;;;5077049;28;20471;-66
2022/01/29 07:26:57;;;;;;;13.40;7.03;;;7.50;58.60;;;;;;5076997;28;20028;-66
2022/01/29 07:29:23;;;;;;;12.48;6.60;;;7.50;58.50;;;;;;5095062;28;20031;-66
2022/01/29 07:31:50;;;;;;;12.25;7.45;;;7.50;58.30;;;;;;5094813;28;20157;-68
2022/01/29 07:34:17;;;;;;;13.07;7.30;;;7.50;58.20;;;;;;5095115;28;20024;-67
2022/01/29 07:36:42;;;;;;;11.40;6.38;;;7.50;58.00;;;;;;5094902;28;20047;-67
2022/01/29 07:39:08;;;;;;;16.30;6.75;;;7.60;58.20;;;;;;5094554;28;20032;-66
2022/01/29 07:41:34;;;;;;;11.25;6.75;;;7.60;58.00;;;;;;5094859;28;20035;-66
2022/01/29 07:44:00;;;;;;;11.95;6.45;;;7.60;58.00;;;;;;5094617;28;20077;-66
2022/01/29 07:46:26;;;;;;;11.75;5.60;;;7.60;57.90;;;;;;5094998;28;20034;-67
2022/01/29 07:48:52;;;;;;;10.77;5.50;;;7.70;58.10;;;;;;5094769;28;20382;-68
2022/01/29 07:51:17;;;;;;;9.85;6.07;;;7.70;58.10;;;;;;5076504;28;20027;-66
2022/01/29 07:53:43;;;;;;;13.75;6.43;;;7.80;58.00;;;;;;5094395;28;20024;-67
2022/01/29 07:56:09;;;;;;;12.02;6.68;;;7.90;58.10;;;;;;5094625;28;20024;-67
2022/01/29 07:58:36;;;;;;;10.52;6.28;;;7.90;57.70;;;;;;5094048;28;20028;-66
2022/01/29 08:01:02;;;;;;;14.98;6.13;;;7.90;57.40;;;;;;5075999;28;20034;-67
2022/01/29 08:03:28;;;;;;;16.23;6.40;;;8.00;57.80;;;;;;5076183;28;20378;-67
2022/01/29 08:05:54;;;;;;;12.50;6.15;;;8.00;57.00;;;;;;5076042;28;20114;-67
2022/01/29 08:08:20;;;;;;;13.10;7.00;;;8.10;57.10;;;;;;5094388;28;20490;-67
2022/01/29 08:10:46;;;;;;;12.60;6.47;;;8.10;56.80;;;;;;5094648;28;20031;-67
2022/01/29 08:13:12;;;;;;;14.30;6.68;;;8.10;56.60;;;;;;5076094;28;20028;-67
2022/01/29 08:15:37;;;;;;;12.95;6.75;;;8.20;56.70;;;;;;5094597;28;20363;-67
2022/01/29 08:18:05;;;;;;;10.68;6.28;;;8.30;56.50;;;;;;5075872;28;20157;-67
2022/01/29 08:20:31;;;;;;;12.77;6.78;;;8.30;56.30;;;;;;5094105;28;20024;-67
2022/01/29 08:22:57;;;;;;;12.60;5.90;;;8.30;56.30;;;;;;5093784;28;20031;-67
2022/01/29 08:25:23;;;;;;;11.98;6.72;;;8.40;56.30;;;;;;5093755;28;20024;-67
2022/01/29 08:27:48;;;;;;;12.25;6.35;;;8.40;56.10;;;;;;5093714;28;20032;-67
2022/01/29 08:30:14;;;;;;;12.52;6.90;;;8.50;55.80;;;;;;5075770;28;20038;-66
2022/01/29 08:32:42;;;;;;;12.10;6.50;;;8.50;55.60;;;;;;5075450;28;20048;-67
2022/01/29 08:35:14;;;;;;;17.88;7.25;;;8.50;55.40;;;;;;5093926;28;20024;-65
2022/01/29 08:37:40;;;;;;;13.52;7.10;;;8.50;55.40;;;;;;5075609;28;20043;-66
2022/01/29 08:40:07;;;;;;;13.85;6.78;;;8.60;55.60;;;;;;5075627;28;20382;-65
2022/01/29 08:42:33;;;;;;;14.25;5.57;;;8.60;55.50;;;;;;5093670;28;20028;-65
2022/01/29 08:45:01;;;;;;;11.73;6.78;;;8.70;55.60;;;;;;5075556;28;20024;-65
2022/01/29 08:47:26;;;;;;;15.43;6.38;;;8.70;55.20;;;;;;5093314;28;20024;-65
2022/01/29 08:49:52;;;;;;;12.85;6.32;;;8.80;55.10;;;;;;5093335;28;20352;-66
2022/01/29 08:52:18;;;;;;;11.88;6.32;;;8.90;55.40;;;;;;5093940;28;20035;-65
2022/01/29 08:54:44;;;;;;;12.63;6.10;;;8.90;55.10;;;;;;5093277;28;20066;-66
2022/01/29 08:57:10;;;;;;;11.10;6.05;;;9.00;54.80;;;;;;5093224;28;20468;-67
2022/01/29 08:59:36;;;;;;;15.23;6.70;;;9.10;54.70;;;;;;5075381;28;20471;-66
2022/01/29 09:02:02;;;;;;;10.27;5.95;;;9.10;54.50;;;;;;5093428;28;20027;-66
2022/01/29 09:04:27;;;;;;;12.48;5.35;;;9.20;54.50;;;;;;5093063;28;20024;-65
2022/01/29 09:06:53;;;;;;;11.57;6.32;;;9.30;54.50;;;;;;5093398;28;20024;-66
2022/01/29 09:09:24;;;;;;;9.05;5.20;;;9.40;54.10;;;;;;5093714;28;20043;-67
2022/01/29 09:11:51;;;;;;;12.43;5.30;;;9.40;53.70;;;;;;5093163;28;20494;-68
2022/01/29 09:14:17;;;;;;;11.50;5.43;;;9.50;53.70;;;;;;5075529;28;20361;-67
2022/01/29 09:16:43;;;;;;;12.55;4.95;;;9.50;53.30;;;;;;5075203;28;20131;-67
2022/01/29 09:19:09;;;;;;;10.88;5.53;;;9.50;53.30;;;;;;5075161;28;20546;-66
2022/01/29 09:21:35;;;;;;;8.50;5.20;;;9.60;53.00;;;;;;5074932;28;20146;-67
2022/01/29 09:24:01;;;;;;;8.27;4.72;;;9.60;52.70;;;;;;5075203;28;20111;-68
2022/01/29 09:26:27;;;;;;;9.50;5.05;;;9.60;52.30;;;;;;5075001;28;20135;-67
2022/01/29 09:28:53;;;;;;;7.50;4.28;;;9.50;51.90;;;;;;5093130;28;20028;-67
2022/01/29 09:31:18;;;;;;;11.43;5.30;;;9.50;51.90;;;;;;5092624;28;20099;-67
2022/01/29 09:33:44;;;;;;;14.45;5.07;;;9.50;52.00;;;;;;5093219;28;20109;-66
2022/01/29 09:36:10;;;;;;;8.90;4.35;;;9.50;51.80;;;;;;5075021;28;20024;-66
2022/01/29 09:38:36;;;;;;;10.25;4.75;;;9.50;51.80;;;;;;5075006;28;20028;-67
2022/01/29 09:41:04;;;;;;;10.98;4.40;;;9.50;51.40;;;;;;5093115;28;20489;-66
2022/01/29 09:43:32;;;;;;;9.80;4.35;;;9.50;51.50;;;;;;5075052;28;20032;-66
2022/01/29 09:45:58;;;;;;;11.00;4.55;;;9.50;51.60;;;;;;5074909;28;20027;-66
2022/01/29 09:48:28;;;;;;;8.05;4.18;;;9.50;51.80;;;;;;5074986;28;20035;-67
2022/01/29 09:50:56;;;;;;;11.80;4.50;;;9.60;51.70;;;;;;5074950;28;20024;-67
2022/01/29 09:53:22;;;;;;;6.80;3.78;;;9.60;51.30;;;;;;5074887;28;20024;-66
2022/01/29 09:55:48;;;;;;;9.30;4.90;;;9.60;51.30;;;;;;5074887;28;20363;-67
2022/01/29 09:58:14;;;;;;;9.73;4.57;;;9.70;51.20;;;;;;5092948;28;20040;-66
2022/01/29 10:00:40;;;;;;;9.20;4.45;;;9.70;51.00;;;;;;5092912;28;20056;-67
2022/01/29 10:03:14;;;;;;;9.43;4.30;;;9.70;51.00;;;;;;5074712;28;20063;-67
2022/01/29 10:05:51;;;;;;;9.93;4.20;;;9.70;50.80;;;;;;5074932;28;20056;-67
2022/01/29 10:08:18;;;;;;;8.10;4.22;;;9.80;50.70;;;;;;5074720;28;20028;-67
2022/01/29 10:10:52;;;;;;;7.15;3.88;;;9.80;50.80;;;;;;5074804;28;20111;-67
2022/01/29 10:13:25;;;;;;;14.53;4.47;;;9.80;50.70;;;;;;5092420;28;20028;-67
2022/01/29 10:16:05;;;;;;;9.77;3.60;;;9.90;51.00;;;;;;5074737;28;20024;-66
2022/01/29 10:18:31;;;;;;;9.80;3.97;;;9.90;51.00;;;;;;5095906;28;20024;-67
2022/01/29 10:21:25;;;;;;;8.45;3.95;;;10.00;50.80;;;;;;5096228;28;20485;-66
2022/01/29 10:24:09;;;;;;;11.15;4.95;;;10.00;50.20;;;;;;5096210;28;20501;-67
2022/01/29 10:26:41;;;;;;;9.60;4.32;;;10.00;50.20;;;;;;5078097;28;20028;-66
2022/01/29 10:29:09;;;;;;;19.60;5.25;;;10.10;50.10;;;;;;5078237;28;20402;-66
2022/01/29 10:32:00;;;;;;;9.13;3.53;;;10.10;50.20;;;;;;5077938;28;20360;-66
2022/01/29 10:34:31;;;;;;;7.90;4.32;;;10.10;50.30;;;;;;5083845;28;20147;-67
2022/01/29 10:37:16;;;;;;;8.90;4.43;;;10.10;49.90;;;;;;5078107;28;20089;-66
2022/01/29 10:39:50;;;;;;;6.45;3.72;;;10.10;49.70;;;;;;5096118;28;20040;-68
2022/01/29 10:42:24;;;;;;;9.45;4.20;;;10.10;50.10;;;;;;5078319;28;20101;-67
2022/01/29 10:44:53;;;;;;;8.73;4.18;;;10.10;49.80;;;;;;5096088;28;20031;-68
2022/01/29 10:47:19;;;;;;;11.35;3.75;;;10.10;49.50;;;;;;5096020;28;20371;-67
2022/01/29 10:49:58;;;;;;;6.20;3.53;;;10.10;49.50;;;;;;5095836;28;20032;-67
2022/01/29 10:52:33;;;;;;;8.93;3.42;;;10.10;49.40;;;;;;5095856;28;20031;-67
2022/01/29 10:55:05;;;;;;;6.32;3.55;;;10.10;49.30;;;;;;5095925;28;20459;-67
2022/01/29 10:57:39;;;;;;;7.78;3.40;;;10.10;49.40;;;;;;5095498;28;20464;-67
2022/01/29 11:00:24;;;;;;;8.77;3.42;;;10.10;49.00;;;;;;5095846;28;20055;-68
2022/01/29 11:02:53;;;;;;;6.88;3.90;;;10.10;48.80;;;;;;5077611;28;20387;-68
2022/01/29 11:05:21;;;;;;;7.32;3.67;;;10.10;48.60;;;;;;5077521;28;20059;-67
2022/01/29 11:07:51;;;;;;;7.30;3.53;;;10.10;48.50;;;;;;5077446;28;20028;-67
2022/01/29 11:10:18;;;;;;;7.18;3.33;;;10.10;48.50;;;;;;5095541;28;20020;-68
2022/01/29 11:12:46;;;;;;;7.57;3.25;;;10.10;48.90;;;;;;5095541;28;20043;-67
2022/01/29 11:15:15;;;;;;;8.93;3.50;;;10.10;48.60;;;;;;5077234;28;20376;-67
2022/01/29 11:17:44;;;;;;;8.20;3.88;;;10.10;48.80;;;;;;5094995;28;20107;-67
2022/01/29 11:20:11;;;;;;;10.32;4.18;;;10.20;48.70;;;;;;5077199;28;20028;-67
2022/01/29 11:22:43;;;;;;;6.10;3.20;;;10.10;48.40;;;;;;5094957;28;20026;-68
2022/01/29 11:25:30;;;;;;;6.30;3.03;;;10.10;48.70;;;;;;5094956;28;20052;-67
2022/01/29 11:28:23;;;;;;;7.28;3.60;;;10.10;48.70;;;;;;5095232;28;20031;-68
2022/01/29 11:31:13;;;;;;;5.22;3.15;;;10.10;49.10;;;;;;5090656;28;20372;-67
2022/01/29 11:34:08;;;;;;;7.63;3.60;;;10.10;49.10;;;;;;5095010;28;20483;-67
2022/01/29 11:36:49;;;;;;;7.63;3.35;;;10.20;49.60;;;;;;5040464;28;20032;-67
2022/01/29 11:39:22;;;;;;;6.32;3.40;;;10.20;49.70;;;;;;5094823;28;20178;-67
2022/01/29 11:42:15;;;;;;;5.55;3.40;;;10.20;49.60;;;;;;5094694;28;20066;-67
2022/01/29 11:44:43;;;;;;;5.95;3.22;;;10.10;49.10;;;;;;5094858;28;20028;-67
2022/01/29 11:47:27;;;;;;;6.15;3.05;;;10.20;49.50;;;;;;5094847;28;20023;-67
2022/01/29 11:50:19;;;;;;;5.90;3.25;;;10.10;49.40;;;;;;5076374;28;20395;-68
2022/01/29 11:52:57;;;;;;;5.57;3.50;;;10.10;49.40;;;;;;5076275;28;20058;-67
2022/01/29 11:55:42;;;;;;;9.43;3.63;;;10.10;49.10;;;;;;5094756;28;20099;-67
2022/01/29 11:58:24;;;;;;;7.10;3.58;;;10.10;49.20;;;;;;5094617;28;20024;-67
2022/01/29 12:00:52;;;;;;;5.90;3.25;;;10.10;49.60;;;;;;5094975;28;20028;-67
2022/01/29 12:03:38;;;;;;;5.78;3.25;;;10.20;49.50;;;;;;5094591;28;20420;-67
2022/01/29 12:09:18;;;;;;;6.63;3.50;;;10.10;49.60;;;;;;5094466;28;20375;-67
2022/01/29 12:12:14;;;;;;;7.25;3.55;;;10.10;49.30;;;;;;5094393;28;20024;-67
2022/01/29 12:14:40;;;;;;;8.50;4.00;;;10.10;49.90;;;;;;5094462;28;20028;-67
2022/01/29 12:17:08;;;;;;;5.47;3.25;;;10.00;50.30;;;;;;5094361;28;20020;-67
2022/01/29 12:19:43;;;;;;;7.82;3.33;;;10.00;50.00;;;;;;5075989;28;20028;-67
2022/01/29 12:22:13;;;;;;;6.75;3.67;;;9.90;50.10;;;;;;5075830;28;20028;-67
2022/01/29 12:24:42;;;;;;;5.68;3.55;;;9.90;50.40;;;;;;5075522;28;20028;-69
2022/01/29 12:27:08;;;;;;;6.00;3.67;;;9.90;50.00;;;;;;5075935;28;20028;-67
2022/01/29 12:29:35;;;;;;;8.18;4.20;;;9.80;49.90;;;;;;5094075;28;20356;-67
2022/01/29 12:32:01;;;;;;;10.15;4.25;;;9.90;50.60;;;;;;5093831;28;20028;-67
2022/01/29 12:34:28;;;;;;;7.90;4.57;;;9.80;50.50;;;;;;5093717;28;20057;-67
2022/01/29 12:37:14;;;;;;;7.60;4.15;;;9.80;50.90;;;;;;5075825;28;20035;-67
2022/01/29 12:39:46;;;;;;;8.60;3.97;;;9.70;51.90;;;;;;5075078;28;20409;-67
2022/01/29 12:42:26;;;;;;;7.57;4.18;;;9.60;52.90;;;;;;5094132;28;20024;-67
2022/01/29 12:44:51;;;;;;;7.05;3.38;;;9.50;53.30;;;;;;5075679;28;20024;-67
2022/01/29 12:47:31;;;;;;;6.70;4.15;;;9.50;53.90;;;;;;5093663;28;20027;-67
2022/01/29 12:49:57;;;;;;;7.97;4.75;;;9.40;54.50;;;;;;5093449;28;20031;-68
2022/01/29 12:52:24;;;;;;;7.68;4.40;;;9.30;54.40;;;;;;5093970;28;20019;-67
2022/01/29 12:55:00;;;;;;;8.40;4.78;;;9.20;54.90;;;;;;5075528;28;20020;-67
2022/01/29 12:57:58;;;;;;;8.35;4.55;;;9.10;55.60;;;;;;5093458;28;20073;-67
2022/01/29 13:00:24;;;;;;;8.27;4.40;;;9.00;56.00;;;;;;5093691;28;20097;-68
2022/01/29 13:02:51;;;;;;;7.55;4.50;;;8.90;56.00;;;;;;5093458;28;20044;-67
2022/01/29 13:05:17;;;;;;;12.25;4.88;;;8.80;56.50;;;;;;5094120;28;20536;-67
2022/01/29 13:07:46;;;;;;;8.73;4.55;;;8.70;57.00;;;;;;5093432;28;20028;-68